createdAt,value
2023-04-22T00:01:17.044Z,4.93
2023-04-22T00:05:20.516Z,5.17
2023-04-22T00:09:22.341Z,5.27
2023-04-22T00:13:23.808Z,5.07
2023-04-22T00:17:26.551Z,5.07
2023-04-22T00:21:28.072Z,5.17
2023-04-22T00:25:29.566Z,5.80
2023-04-22T00:29:30.956Z,6.23
2023-04-22T00:33:34.754Z,6.13
2023-04-22T00:37:36.285Z,6.77
2023-04-22T00:41:38.950Z,6.93
2023-04-22T00:45:42.126Z,7.10
2023-04-22T00:49:46.188Z,7.17
2023-04-22T00:53:47.757Z,7.57
2023-04-22T00:57:50.540Z,7.80
2023-04-22T01:01:52.243Z,8.40
2023-04-22T01:05:55.892Z,8.20
2023-04-22T01:09:57.818Z,8.13
2023-04-22T01:13:59.180Z,8.63
2023-04-22T01:18:00.683Z,8.43
2023-04-22T01:22:04.554Z,8.70
2023-04-22T01:26:07.452Z,8.63
2023-04-22T01:30:10.094Z,8.60
2023-04-22T01:34:11.739Z,8.97
2023-04-22T01:38:13.534Z,8.60
2023-04-22T01:42:16.368Z,8.73
2023-04-22T01:46:17.877Z,7.60
2023-04-22T01:50:20.151Z,8.20
2023-04-22T01:54:21.815Z,8.20
2023-04-22T01:58:24.583Z,7.27
2023-04-22T02:02:26.504Z,7.47
2023-04-22T02:06:27.994Z,6.20
2023-04-22T02:10:29.472Z,7.20
2023-04-22T02:14:32.443Z,7.23
2023-04-22T02:18:33.989Z,7.70
2023-04-22T02:22:35.451Z,7.80
2023-04-22T02:26:36.902Z,8.63
2023-04-22T02:30:39.710Z,8.43
2023-04-22T02:34:42.716Z,9.50
2023-04-22T02:38:44.150Z,10.23
2023-04-22T02:42:45.541Z,10.20
2023-04-22T02:46:48.340Z,10.17
2023-04-22T02:50:49.742Z,9.87
2023-04-22T02:54:51.111Z,10.13
2023-04-22T02:58:52.530Z,10.23
2023-04-22T03:02:55.395Z,10.10
2023-04-22T03:06:56.861Z,9.90
2023-04-22T03:10:58.260Z,9.13
2023-04-22T03:14:59.736Z,9.70
2023-04-22T03:19:02.569Z,9.73
2023-04-22T03:23:04.085Z,10.23
2023-04-22T03:27:05.917Z,10.90
2023-04-22T03:31:07.325Z,10.93
2023-04-22T03:35:10.871Z,10.70
2023-04-22T03:39:12.271Z,9.90
2023-04-22T03:43:15.109Z,10.60
2023-04-22T03:47:16.546Z,10.03
2023-04-22T03:51:20.202Z,8.97
2023-04-22T03:55:21.906Z,10.07
2023-04-22T03:59:23.570Z,9.03
2023-04-22T04:03:25.710Z,8.90
2023-04-22T04:07:29.428Z,9.30
2023-04-22T04:11:31.117Z,9.10
2023-04-22T04:15:32.689Z,8.37
2023-04-22T04:19:34.195Z,7.97
2023-04-22T04:23:36.978Z,7.00
2023-04-22T04:27:38.411Z,7.73
2023-04-22T04:31:39.849Z,8.00
2023-04-22T04:35:41.340Z,7.80
2023-04-22T04:39:44.149Z,7.50
2023-04-22T04:43:45.552Z,7.10
2023-04-22T04:47:47.317Z,6.97
2023-04-22T04:51:49.014Z,6.60
2023-04-22T04:55:52.106Z,6.17
2023-04-22T04:59:53.505Z,5.97
2023-04-22T05:03:57.147Z,5.50
2023-04-22T05:07:58.867Z,5.90
2023-04-22T05:12:02.085Z,5.30
2023-04-22T05:16:03.616Z,6.03
2023-04-22T05:20:06.021Z,6.00
2023-04-22T05:24:07.596Z,6.53
2023-04-22T05:28:10.337Z,6.30
2023-04-22T05:32:11.862Z,5.90
2023-04-22T05:36:13.327Z,5.70
2023-04-22T05:40:14.774Z,6.23
2023-04-22T05:44:17.620Z,5.13
2023-04-22T05:48:19.096Z,5.43
2023-04-22T05:52:20.522Z,5.57
2023-04-22T05:56:22.103Z,5.77
2023-04-22T06:00:24.997Z,5.27
2023-04-22T06:04:26.753Z,5.30
2023-04-22T06:08:30.085Z,5.00
2023-04-22T06:12:32.938Z,4.20
2023-04-22T06:16:35.749Z,4.20
2023-04-22T06:20:37.202Z,3.60
2023-04-22T06:24:38.679Z,3.03
2023-04-22T06:28:40.059Z,2.70
2023-04-22T06:32:43.208Z,3.27
2023-04-22T06:36:44.620Z,2.80
2023-04-22T06:40:46.007Z,2.33
2023-04-22T06:44:47.572Z,2.30
2023-04-22T06:48:50.473Z,2.80
2023-04-22T06:52:53.348Z,1.97
2023-04-22T06:56:54.848Z,2.00
2023-04-22T07:00:56.477Z,2.00
2023-04-22T07:04:59.455Z,1.90
2023-04-22T07:09:00.942Z,2.00
2023-04-22T07:13:02.617Z,1.90
2023-04-22T07:17:04.039Z,2.00
2023-04-22T07:21:06.804Z,1.60
2023-04-22T07:25:09.144Z,1.93
2023-04-22T07:29:11.091Z,1.93
2023-04-22T07:33:12.638Z,1.97
2023-04-22T07:37:15.450Z,1.70
2023-04-22T07:41:17.082Z,2.23
2023-04-22T07:45:18.670Z,2.00
2023-04-22T07:49:21.092Z,2.53
2023-04-22T07:53:24.029Z,2.00
2023-04-22T07:57:25.465Z,1.80
2023-04-22T08:01:27.130Z,2.20
2023-04-22T08:05:28.804Z,1.60
2023-04-22T08:09:31.555Z,1.67
2023-04-22T08:13:33.098Z,2.00
2023-04-22T08:17:34.678Z,1.80
2023-04-22T08:21:36.138Z,1.60
2023-04-22T08:25:39.014Z,1.70
2023-04-22T08:29:41.044Z,1.90
2023-04-22T08:33:42.813Z,1.70
2023-04-22T08:37:44.276Z,1.70
2023-04-22T08:41:48.964Z,1.70
2023-04-22T08:45:50.813Z,2.63
2023-04-22T08:49:54.768Z,2.93
2023-04-22T08:53:56.416Z,1.60
2023-04-22T08:58:00.914Z,1.80
2023-04-22T09:02:04.523Z,1.77
2023-04-22T09:06:07.744Z,1.60
2023-04-22T09:10:10.186Z,1.50
2023-04-22T09:14:13.093Z,1.50
2023-04-22T09:18:17.377Z,2.20
2023-04-22T09:22:18.883Z,1.90
2023-04-22T09:26:21.269Z,3.90
2023-04-22T09:30:29.637Z,2.20
2023-04-22T09:34:31.148Z,1.70
2023-04-22T09:38:32.615Z,1.83
2023-04-22T09:42:47.936Z,1.50
2023-04-22T09:46:50.691Z,1.60
2023-04-22T09:50:52.241Z,1.77
2023-04-22T09:54:54.216Z,2.23
2023-04-22T09:58:55.791Z,1.60
2023-04-22T10:02:59.009Z,2.30
2023-04-22T10:07:00.810Z,2.03
2023-04-22T10:11:02.945Z,1.63
2023-04-22T10:15:05.205Z,1.73
2023-04-22T10:19:10.545Z,1.60
2023-04-22T10:23:14.774Z,1.50
2023-04-22T10:27:21.499Z,1.60
2023-04-22T10:31:23.017Z,1.87
2023-04-22T10:35:28.913Z,1.80
2023-04-22T10:39:30.519Z,1.57
2023-04-22T10:43:42.254Z,1.63
2023-04-22T10:47:44.186Z,1.53
2023-04-22T10:51:48.652Z,1.73
2023-04-22T10:55:51.632Z,1.73
2023-04-22T10:59:56.395Z,1.70
2023-04-22T11:04:19.709Z,2.00
2023-04-22T11:08:28.206Z,1.90
2023-04-22T11:12:42.442Z,1.70
2023-04-22T11:16:46.609Z,1.77
2023-04-22T11:20:48.832Z,2.00
2023-04-22T11:24:55.389Z,1.90
2023-04-22T11:28:59.796Z,1.90
2023-04-22T11:33:01.303Z,1.90
2023-04-22T11:37:02.775Z,3.23
2023-04-22T11:41:05.916Z,1.80
2023-04-22T11:45:08.495Z,1.97
2023-04-22T11:49:16.687Z,2.30
2023-04-22T11:53:19.545Z,1.87
2023-04-22T11:57:22.292Z,2.10
2023-04-22T12:01:23.659Z,1.93
2023-04-22T12:05:36.357Z,1.90
2023-04-22T12:09:39.818Z,1.97
2023-04-22T12:13:44.784Z,2.00
2023-04-22T12:17:46.481Z,2.00
2023-04-22T12:21:47.885Z,1.87
2023-04-22T12:25:49.338Z,1.60
2023-04-22T12:29:54.125Z,1.80
2023-04-22T12:33:56.366Z,1.87
2023-04-22T12:37:58.290Z,1.90
2023-04-22T12:41:59.890Z,1.87
2023-04-22T12:46:02.697Z,1.60
2023-04-22T12:50:04.879Z,1.50
2023-04-22T12:54:06.263Z,1.50
2023-04-22T12:58:07.755Z,1.60
2023-04-22T13:02:10.690Z,1.40
2023-04-22T13:06:12.421Z,1.37
2023-04-22T13:10:16.147Z,1.60
2023-04-22T13:14:17.791Z,1.53
2023-04-22T13:18:21.739Z,1.90
2023-04-22T13:22:23.139Z,1.50
2023-04-22T13:26:24.655Z,1.60
2023-04-22T13:30:26.195Z,1.50
2023-04-22T13:34:29.016Z,1.50
2023-04-22T13:38:30.888Z,1.40
2023-04-22T13:42:32.499Z,1.30
2023-04-22T13:46:34.008Z,1.60
2023-04-22T13:50:36.708Z,1.50
2023-04-22T13:54:38.144Z,1.50
2023-04-22T13:58:40.832Z,2.03
2023-04-22T14:02:42.233Z,1.43
2023-04-22T14:06:45.056Z,1.20
2023-04-22T14:10:46.480Z,1.67
2023-04-22T14:14:47.867Z,1.60
2023-04-22T14:18:49.982Z,1.70
2023-04-22T14:22:52.917Z,1.40
2023-04-22T14:26:55.559Z,1.87
2023-04-22T14:30:57.077Z,18.93
2023-04-22T14:34:58.496Z,8.23
2023-04-22T14:39:01.268Z,25.67
2023-04-22T14:43:05.927Z,5.60
2023-04-22T14:47:07.328Z,6.77
2023-04-22T14:51:08.800Z,25.17
2023-04-22T14:55:21.874Z,2.00
2023-04-22T14:59:24.512Z,1.70
2023-04-22T15:03:26.004Z,1.33
2023-04-22T15:07:27.728Z,1.70
2023-04-22T15:11:30.665Z,1.50
2023-04-22T15:15:32.097Z,2.00
2023-04-22T15:19:33.546Z,2.97
2023-04-22T15:23:34.931Z,2.40
2023-04-22T15:27:38.370Z,1.60
2023-04-22T15:31:39.987Z,1.33
2023-04-22T15:35:41.430Z,1.60
2023-04-22T15:39:43.258Z,1.53
2023-04-22T15:43:46.046Z,1.50
2023-04-22T15:47:47.889Z,30.43
2023-04-22T15:51:49.350Z,76.03
2023-04-22T15:55:50.821Z,111.00
2023-04-22T16:00:06.905Z,24.47
2023-04-22T16:04:12.169Z,17.07
2023-04-22T16:08:13.856Z,1.90
2023-04-22T16:12:15.620Z,9.57
2023-04-22T16:16:18.655Z,3.27
2023-04-22T16:20:20.406Z,4.83
2023-04-22T16:24:21.768Z,4.53
2023-04-22T16:28:23.364Z,2.30
2023-04-22T16:32:26.258Z,1.40
2023-04-22T16:36:27.715Z,1.60
2023-04-22T16:40:29.366Z,1.53
2023-04-22T16:44:30.771Z,1.33
2023-04-22T16:48:33.570Z,1.43
2023-04-22T16:52:35.041Z,5.37
2023-04-22T16:56:36.527Z,4.37
2023-04-22T17:00:38.409Z,1.60
2023-04-22T17:04:41.401Z,5.83
2023-04-22T17:08:42.826Z,1.70
2023-04-22T17:12:47.009Z,1.60
2023-04-22T17:16:49.160Z,7.40
2023-04-22T17:20:52.007Z,6.40
2023-04-22T17:24:53.618Z,2.53
2023-04-22T17:28:55.112Z,1.80
2023-04-22T17:32:56.707Z,1.67
2023-04-22T17:37:00.543Z,1.63
2023-04-22T17:41:02.162Z,2.20
2023-04-22T17:45:04.308Z,1.63
2023-04-22T17:49:05.778Z,1.77
2023-04-22T17:53:08.795Z,1.70
2023-04-22T17:57:10.242Z,1.60
2023-04-22T18:01:11.698Z,1.70
2023-04-22T18:05:13.511Z,5.07
2023-04-22T18:09:16.675Z,4.03
2023-04-22T18:13:18.166Z,4.53
2023-04-22T18:17:19.567Z,3.60
2023-04-22T18:21:21.036Z,2.37
2023-04-22T18:25:23.873Z,1.60
2023-04-22T18:29:25.370Z,1.80
2023-04-22T18:33:26.836Z,1.90
2023-04-22T18:37:28.218Z,1.70
2023-04-22T18:41:31.109Z,1.83
2023-04-22T18:45:32.732Z,2.00
2023-04-22T18:49:34.223Z,1.83
2023-04-22T18:53:35.974Z,2.00
2023-04-22T18:57:38.771Z,1.70
2023-04-22T19:01:40.289Z,1.93
2023-04-22T19:05:41.755Z,2.00
2023-04-22T19:09:43.156Z,1.70
2023-04-22T19:13:46.172Z,1.87
2023-04-22T19:17:47.616Z,1.70
2023-04-22T19:21:49.131Z,1.60
2023-04-22T19:25:50.673Z,2.67
2023-04-22T19:29:53.614Z,2.90
2023-04-22T19:33:55.108Z,2.90
2023-04-22T19:37:59.220Z,3.60
2023-04-22T19:42:01.656Z,5.60
2023-04-22T19:46:05.045Z,4.67
2023-04-22T19:50:08.422Z,5.70
2023-04-22T19:54:11.207Z,6.13
2023-04-22T19:58:13.681Z,6.10
2023-04-22T20:02:16.999Z,7.27
2023-04-22T20:06:19.342Z,7.57
2023-04-22T20:10:20.868Z,7.97
2023-04-22T20:14:22.475Z,7.50
2023-04-22T20:18:25.772Z,7.77
2023-04-22T20:22:27.252Z,8.00
2023-04-22T20:26:29.027Z,8.77
2023-04-22T20:30:30.811Z,7.97
2023-04-22T20:34:34.273Z,8.90
2023-04-22T20:38:36.545Z,8.07
2023-04-22T20:42:38.142Z,7.13
2023-04-22T20:46:39.614Z,6.57
2023-04-22T20:50:42.502Z,7.30
2023-04-22T20:54:43.967Z,6.97
2023-04-22T20:58:46.777Z,6.90
2023-04-22T21:02:48.879Z,7.17
2023-04-22T21:06:52.299Z,7.10
2023-04-22T21:10:55.496Z,7.40
2023-04-22T21:14:57.504Z,7.17
2023-04-22T21:18:59.581Z,8.13
2023-04-22T21:23:02.659Z,8.03
2023-04-22T21:27:05.431Z,7.77
2023-04-22T21:31:07.452Z,7.60
2023-04-22T21:35:09.149Z,8.07
2023-04-22T21:39:12.180Z,8.50
2023-04-22T21:43:13.692Z,8.43
2023-04-22T21:47:15.240Z,8.67
2023-04-22T21:51:18.110Z,8.33
2023-04-22T21:55:21.320Z,11.60
2023-04-22T21:59:22.803Z,9.20
2023-04-22T22:03:24.362Z,9.43
2023-04-22T22:07:26.114Z,10.20
2023-04-22T22:11:31.303Z,9.17
2023-04-22T22:15:32.922Z,9.67
2023-04-22T22:19:34.370Z,8.53
2023-04-22T22:23:35.851Z,9.67
2023-04-22T22:27:40.342Z,10.67
2023-04-22T22:31:41.865Z,9.20
2023-04-22T22:35:43.332Z,9.40
2023-04-22T22:39:44.945Z,9.13
2023-04-22T22:43:47.702Z,10.03
2023-04-22T22:47:49.190Z,9.93
2023-04-22T22:51:50.680Z,10.53
2023-04-22T22:55:52.052Z,10.50
2023-04-22T22:59:54.760Z,10.80
2023-04-22T23:03:56.367Z,9.93
2023-04-22T23:07:58.069Z,9.83
2023-04-22T23:11:59.486Z,10.80
2023-04-22T23:16:02.401Z,9.80
2023-04-22T23:20:05.165Z,10.27
2023-04-22T23:24:08.495Z,9.90
2023-04-22T23:28:10.282Z,10.63
2023-04-22T23:32:15.229Z,10.80
2023-04-22T23:36:18.157Z,11.03
2023-04-22T23:40:19.781Z,11.17
2023-04-22T23:44:21.533Z,11.03
2023-04-22T23:48:24.356Z,11.33
2023-04-22T23:52:25.774Z,11.17
2023-04-22T23:56:27.848Z,11.40
